sensor_id;sensor_type;location;lat;lon;timestamp;temperature;humidity
22674;DHT22;11504;43.334;21.918;2023-05-07T00:02:29;16.0;100.0
22674;DHT22;11504;43.334;21.918;2023-05-07T00:07:05;15.8;100.0
22674;DHT22;11504;43.334;21.918;2023-05-07T00:11:42;15.8;100.0
22674;DHT22;11504;43.334;21.918;2023-05-07T00:16:18;15.8;100.0
22674;DHT22;11504;43.334;21.918;2023-05-07T00:20:56;15.8;100.0
22674;DHT22;11504;43.334;21.918;2023-05-07T00:25:33;15.8;100.0
22674;DHT22;11504;43.334;21.918;2023-05-07T00:30:11;15.7;100.0
22674;DHT22;11504;43.334;21.918;2023-05-07T00:34:50;15.7;100.0
22674;DHT22;11504;43.334;21.918;2023-05-07T00:39:26;15.6;100.0
22674;DHT22;11504;43.334;21.918;2023-05-07T00:44:03;15.6;100.0
22674;DHT22;11504;43.334;21.918;2023-05-07T00:48:40;15.4;100.0
22674;DHT22;11504;43.334;21.918;2023-05-07T00:53:18;15.4;100.0
22674;DHT22;11504;43.334;21.918;2023-05-07T00:57:56;15.4;100.0
22674;DHT22;11504;43.334;21.918;2023-05-07T01:02:33;15.4;100.0
22674;DHT22;11504;43.334;21.918;2023-05-07T01:07:11;15.3;100.0
22674;DHT22;11504;43.334;21.918;2023-05-07T01:11:50;15.3;100.0
22674;DHT22;11504;43.334;21.918;2023-05-07T01:16:31;15.3;100.0
22674;DHT22;11504;43.334;21.918;2023-05-07T01:21:10;15.2;100.0
22674;DHT22;11504;43.334;21.918;2023-05-07T01:25:54;15.2;100.0
22674;DHT22;11504;43.334;21.918;2023-05-07T01:30:32;15.1;100.0
22674;DHT22;11504;43.334;21.918;2023-05-07T01:35:28;15.1;100.0
22674;DHT22;11504;43.334;21.918;2023-05-07T01:40:25;15.0;100.0
22674;DHT22;11504;43.334;21.918;2023-05-07T01:45:05;15.0;100.0
22674;DHT22;11504;43.334;21.918;2023-05-07T01:49:46;14.9;100.0
22674;DHT22;11504;43.334;21.918;2023-05-07T01:54:25;14.9;100.0
22674;DHT22;11504;43.334;21.918;2023-05-07T01:59:03;14.7;100.0
22674;DHT22;11504;43.334;21.918;2023-05-07T02:03:40;14.7;100.0
22674;DHT22;11504;43.334;21.918;2023-05-07T02:08:17;14.5;100.0
22674;DHT22;11504;43.334;21.918;2023-05-07T02:12:54;14.5;100.0
22674;DHT22;11504;43.334;21.918;2023-05-07T02:17:31;14.4;100.0
22674;DHT22;11504;43.334;21.918;2023-05-07T02:22:07;14.4;100.0
22674;DHT22;11504;43.334;21.918;2023-05-07T02:26:46;14.4;100.0
22674;DHT22;11504;43.334;21.918;2023-05-07T02:31:22;14.4;100.0
22674;DHT22;11504;43.334;21.918;2023-05-07T02:36:05;14.4;100.0
22674;DHT22;11504;43.334;21.918;2023-05-07T02:40:45;14.4;100.0
22674;DHT22;11504;43.334;21.918;2023-05-07T02:45:22;14.4;100.0
22674;DHT22;11504;43.334;21.918;2023-05-07T02:49:59;14.3;100.0
22674;DHT22;11504;43.334;21.918;2023-05-07T02:54:35;14.3;100.0
22674;DHT22;11504;43.334;21.918;2023-05-07T02:59:12;14.2;100.0
22674;DHT22;11504;43.334;21.918;2023-05-07T03:03:48;14.2;100.0
22674;DHT22;11504;43.334;21.918;2023-05-07T03:08:26;14.2;100.0
22674;DHT22;11504;43.334;21.918;2023-05-07T03:13:03;14.2;100.0
22674;DHT22;11504;43.334;21.918;2023-05-07T03:17:41;14.2;100.0
22674;DHT22;11504;43.334;21.918;2023-05-07T03:22:17;14.2;100.0
22674;DHT22;11504;43.334;21.918;2023-05-07T03:26:54;14.2;100.0
22674;DHT22;11504;43.334;21.918;2023-05-07T03:31:30;14.2;100.0
22674;DHT22;11504;43.334;21.918;2023-05-07T03:36:07;14.2;100.0
22674;DHT22;11504;43.334;21.918;2023-05-07T03:40:44;14.2;100.0
22674;DHT22;11504;43.334;21.918;2023-05-07T03:45:21;14.2;100.0
22674;DHT22;11504;43.334;21.918;2023-05-07T03:49:57;14.1;100.0
22674;DHT22;11504;43.334;21.918;2023-05-07T03:54:34;14.1;100.0
22674;DHT22;11504;43.334;21.918;2023-05-07T03:59:11;14.1;100.0
22674;DHT22;11504;43.334;21.918;2023-05-07T04:03:49;14.1;100.0
22674;DHT22;11504;43.334;21.918;2023-05-07T04:08:25;14.1;100.0
22674;DHT22;11504;43.334;21.918;2023-05-07T04:13:02;14.1;100.0
22674;DHT22;11504;43.334;21.918;2023-05-07T04:17:39;15.2;100.0
22674;DHT22;11504;43.334;21.918;2023-05-07T04:22:16;15.2;100.0
22674;DHT22;11504;43.334;21.918;2023-05-07T04:26:53;15.2;100.0
22674;DHT22;11504;43.334;21.918;2023-05-07T04:31:29;16.2;100.0
22674;DHT22;11504;43.334;21.918;2023-05-07T04:36:07;16.2;100.0
22674;DHT22;11504;43.334;21.918;2023-05-07T04:40:45;20.4;100.0
22674;DHT22;11504;43.334;21.918;2023-05-07T04:45:21;20.4;100.0
22674;DHT22;11504;43.334;21.918;2023-05-07T04:49:59;24.5;100.0
22674;DHT22;11504;43.334;21.918;2023-05-07T04:54:35;24.5;100.0
22674;DHT22;11504;43.334;21.918;2023-05-07T04:59:12;26.8;100.0
22674;DHT22;11504;43.334;21.918;2023-05-07T05:03:48;26.8;100.0
22674;DHT22;11504;43.334;21.918;2023-05-07T05:08:24;29.0;100.0
22674;DHT22;11504;43.334;21.918;2023-05-07T05:13:00;29.0;100.0
22674;DHT22;11504;43.334;21.918;2023-05-07T05:17:37;30.6;100.0
22674;DHT22;11504;43.334;21.918;2023-05-07T05:22:13;30.6;100.0
22674;DHT22;11504;43.334;21.918;2023-05-07T05:26:49;30.6;100.0
22674;DHT22;11504;43.334;21.918;2023-05-07T05:31:29;32.1;100.0
22674;DHT22;11504;43.334;21.918;2023-05-07T05:36:07;32.1;100.0
22674;DHT22;11504;43.334;21.918;2023-05-07T05:40:46;32.8;100.0
22674;DHT22;11504;43.334;21.918;2023-05-07T05:45:23;32.8;100.0
22674;DHT22;11504;43.334;21.918;2023-05-07T05:50:01;33.4;100.0
22674;DHT22;11504;43.334;21.918;2023-05-07T05:54:42;33.4;100.0
22674;DHT22;11504;43.334;21.918;2023-05-07T05:59:18;33.6;100.0
22674;DHT22;11504;43.334;21.918;2023-05-07T06:03:56;33.6;100.0
22674;DHT22;11504;43.334;21.918;2023-05-07T06:08:32;33.8;100.0
22674;DHT22;11504;43.334;21.918;2023-05-07T06:13:09;33.8;100.0
22674;DHT22;11504;43.334;21.918;2023-05-07T06:17:45;33.4;100.0
22674;DHT22;11504;43.334;21.918;2023-05-07T06:22:22;33.4;100.0
22674;DHT22;11504;43.334;21.918;2023-05-07T06:26:58;33.4;100.0
22674;DHT22;11504;43.334;21.918;2023-05-07T06:31:35;33.0;100.0
22674;DHT22;11504;43.334;21.918;2023-05-07T06:36:11;33.0;100.0
22674;DHT22;11504;43.334;21.918;2023-05-07T06:40:48;32.0;100.0
22674;DHT22;11504;43.334;21.918;2023-05-07T06:45:25;32.0;100.0
22674;DHT22;11504;43.334;21.918;2023-05-07T06:50:03;30.9;100.0
22674;DHT22;11504;43.334;21.918;2023-05-07T06:54:44;30.9;100.0
22674;DHT22;11504;43.334;21.918;2023-05-07T06:59:20;30.2;100.0
22674;DHT22;11504;43.334;21.918;2023-05-07T07:03:57;30.2;100.0
22674;DHT22;11504;43.334;21.918;2023-05-07T07:08:34;29.5;100.0
22674;DHT22;11504;43.334;21.918;2023-05-07T07:13:10;29.5;100.0
22674;DHT22;11504;43.334;21.918;2023-05-07T07:17:48;29.0;100.0
22674;DHT22;11504;43.334;21.918;2023-05-07T07:22:24;29.0;100.0
22674;DHT22;11504;43.334;21.918;2023-05-07T07:27:01;29.0;100.0
22674;DHT22;11504;43.334;21.918;2023-05-07T07:31:38;28.5;100.0
22674;DHT22;11504;43.334;21.918;2023-05-07T07:36:15;28.5;100.0
22674;DHT22;11504;43.334;21.918;2023-05-07T07:40:51;28.2;100.0
22674;DHT22;11504;43.334;21.918;2023-05-07T07:45:28;28.2;100.0
22674;DHT22;11504;43.334;21.918;2023-05-07T07:50:05;28.0;100.0
22674;DHT22;11504;43.334;21.918;2023-05-07T07:54:44;28.0;100.0
22674;DHT22;11504;43.334;21.918;2023-05-07T07:59:21;28.2;100.0
22674;DHT22;11504;43.334;21.918;2023-05-07T08:03:57;28.2;100.0
22674;DHT22;11504;43.334;21.918;2023-05-07T08:08:34;28.3;100.0
22674;DHT22;11504;43.334;21.918;2023-05-07T08:13:10;28.3;100.0
22674;DHT22;11504;43.334;21.918;2023-05-07T08:17:47;28.2;100.0
22674;DHT22;11504;43.334;21.918;2023-05-07T08:22:24;28.2;100.0
22674;DHT22;11504;43.334;21.918;2023-05-07T08:27:01;28.2;100.0
22674;DHT22;11504;43.334;21.918;2023-05-07T08:31:37;28.1;100.0
22674;DHT22;11504;43.334;21.918;2023-05-07T08:36:14;28.1;100.0
22674;DHT22;11504;43.334;21.918;2023-05-07T08:40:51;28.6;100.0
22674;DHT22;11504;43.334;21.918;2023-05-07T08:45:30;28.6;100.0
22674;DHT22;11504;43.334;21.918;2023-05-07T08:50:11;29.2;100.0
22674;DHT22;11504;43.334;21.918;2023-05-07T08:54:48;29.2;100.0
22674;DHT22;11504;43.334;21.918;2023-05-07T08:59:25;29.3;100.0
22674;DHT22;11504;43.334;21.918;2023-05-07T09:04:02;29.3;100.0
22674;DHT22;11504;43.334;21.918;2023-05-07T09:08:40;29.4;100.0
22674;DHT22;11504;43.334;21.918;2023-05-07T09:13:27;29.4;100.0
22674;DHT22;11504;43.334;21.918;2023-05-07T09:18:05;29.2;100.0
22674;DHT22;11504;43.334;21.918;2023-05-07T09:22:41;29.2;100.0
22674;DHT22;11504;43.334;21.918;2023-05-07T09:27:18;29.2;100.0
22674;DHT22;11504;43.334;21.918;2023-05-07T09:31:55;29.1;100.0
22674;DHT22;11504;43.334;21.918;2023-05-07T09:36:32;29.1;100.0
22674;DHT22;11504;43.334;21.918;2023-05-07T09:41:12;29.2;100.0
22674;DHT22;11504;43.334;21.918;2023-05-07T09:45:49;29.2;100.0
22674;DHT22;11504;43.334;21.918;2023-05-07T09:50:29;29.2;100.0
22674;DHT22;11504;43.334;21.918;2023-05-07T09:55:32;29.2;100.0
22674;DHT22;11504;43.334;21.918;2023-05-07T10:00:10;28.9;100.0
22674;DHT22;11504;43.334;21.918;2023-05-07T10:04:54;28.9;100.0
22674;DHT22;11504;43.334;21.918;2023-05-07T10:09:34;28.6;100.0
22674;DHT22;11504;43.334;21.918;2023-05-07T10:14:15;28.6;100.0
22674;DHT22;11504;43.334;21.918;2023-05-07T10:18:57;28.6;100.0
22674;DHT22;11504;43.334;21.918;2023-05-07T10:23:35;28.6;100.0
22674;DHT22;11504;43.334;21.918;2023-05-07T10:28:15;28.7;100.0
22674;DHT22;11504;43.334;21.918;2023-05-07T10:33:03;28.7;100.0
22674;DHT22;11504;43.334;21.918;2023-05-07T10:37:50;28.8;100.0
22674;DHT22;11504;43.334;21.918;2023-05-07T10:42:28;28.8;100.0
22674;DHT22;11504;43.334;21.918;2023-05-07T10:47:07;28.8;100.0
22674;DHT22;11504;43.334;21.918;2023-05-07T10:52:11;28.8;100.0
22674;DHT22;11504;43.334;21.918;2023-05-07T10:56:55;28.8;100.0
22674;DHT22;11504;43.334;21.918;2023-05-07T11:02:08;28.4;100.0
22674;DHT22;11504;43.334;21.918;2023-05-07T11:07:21;28.4;100.0
22674;DHT22;11504;43.334;21.918;2023-05-07T11:12:06;28.0;100.0
22674;DHT22;11504;43.334;21.918;2023-05-07T11:16:43;28.0;100.0
22674;DHT22;11504;43.334;21.918;2023-05-07T11:21:38;27.8;100.0
22674;DHT22;11504;43.334;21.918;2023-05-07T11:26:18;27.8;100.0
22674;DHT22;11504;43.334;21.918;2023-05-07T11:30:57;27.5;100.0
22674;DHT22;11504;43.334;21.918;2023-05-07T11:35:36;27.5;100.0
22674;DHT22;11504;43.334;21.918;2023-05-07T11:40:14;27.6;100.0
22674;DHT22;11504;43.334;21.918;2023-05-07T11:44:51;27.6;100.0
22674;DHT22;11504;43.334;21.918;2023-05-07T11:49:27;27.7;100.0
22674;DHT22;11504;43.334;21.918;2023-05-07T11:54:05;27.7;100.0
22674;DHT22;11504;43.334;21.918;2023-05-07T11:58:46;27.8;100.0
22674;DHT22;11504;43.334;21.918;2023-05-07T12:03:24;27.8;100.0
22674;DHT22;11504;43.334;21.918;2023-05-07T12:08:01;27.8;100.0
22674;DHT22;11504;43.334;21.918;2023-05-07T12:12:39;27.8;100.0
22674;DHT22;11504;43.334;21.918;2023-05-07T12:17:21;27.8;100.0
22674;DHT22;11504;43.334;21.918;2023-05-07T12:21:59;27.6;100.0
22674;DHT22;11504;43.334;21.918;2023-05-07T12:26:39;27.6;100.0
22674;DHT22;11504;43.334;21.918;2023-05-07T12:31:17;27.4;100.0
22674;DHT22;11504;43.334;21.918;2023-05-07T12:35:55;27.4;100.0
22674;DHT22;11504;43.334;21.918;2023-05-07T12:40:35;27.5;100.0
22674;DHT22;11504;43.334;21.918;2023-05-07T12:45:20;27.5;100.0
22674;DHT22;11504;43.334;21.918;2023-05-07T12:49:57;27.6;100.0
22674;DHT22;11504;43.334;21.918;2023-05-07T12:54:37;27.6;100.0
22674;DHT22;11504;43.334;21.918;2023-05-07T12:59:14;27.7;100.0
22674;DHT22;11504;43.334;21.918;2023-05-07T13:03:50;27.7;100.0
22674;DHT22;11504;43.334;21.918;2023-05-07T13:08:28;27.8;100.0
22674;DHT22;11504;43.334;21.918;2023-05-07T13:13:09;27.8;100.0
22674;DHT22;11504;43.334;21.918;2023-05-07T13:17:46;27.8;100.0
22674;DHT22;11504;43.334;21.918;2023-05-07T13:22:22;27.8;100.0
22674;DHT22;11504;43.334;21.918;2023-05-07T13:26:58;27.8;100.0
22674;DHT22;11504;43.334;21.918;2023-05-07T13:31:34;27.8;100.0
22674;DHT22;11504;43.334;21.918;2023-05-07T13:36:11;27.8;100.0
22674;DHT22;11504;43.334;21.918;2023-05-07T13:40:48;27.6;100.0
22674;DHT22;11504;43.334;21.918;2023-05-07T13:45:24;27.6;100.0
22674;DHT22;11504;43.334;21.918;2023-05-07T13:50:01;27.5;100.0
22674;DHT22;11504;43.334;21.918;2023-05-07T13:54:42;27.5;100.0
22674;DHT22;11504;43.334;21.918;2023-05-07T13:59:19;27.4;100.0
22674;DHT22;11504;43.334;21.918;2023-05-07T14:03:55;27.4;100.0
22674;DHT22;11504;43.334;21.918;2023-05-07T14:08:33;27.3;100.0
22674;DHT22;11504;43.334;21.918;2023-05-07T14:13:09;27.3;100.0
22674;DHT22;11504;43.334;21.918;2023-05-07T14:17:45;27.2;100.0
22674;DHT22;11504;43.334;21.918;2023-05-07T14:22:22;27.2;100.0
22674;DHT22;11504;43.334;21.918;2023-05-07T14:26:59;27.2;100.0
22674;DHT22;11504;43.334;21.918;2023-05-07T14:31:36;27.0;100.0
22674;DHT22;11504;43.334;21.918;2023-05-07T14:36:12;27.0;100.0
22674;DHT22;11504;43.334;21.918;2023-05-07T14:40:49;26.9;100.0
22674;DHT22;11504;43.334;21.918;2023-05-07T14:45:25;26.9;100.0
22674;DHT22;11504;43.334;21.918;2023-05-07T14:50:02;26.8;100.0
22674;DHT22;11504;43.334;21.918;2023-05-07T14:54:41;26.8;100.0
22674;DHT22;11504;43.334;21.918;2023-05-07T14:59:18;26.7;100.0
22674;DHT22;11504;43.334;21.918;2023-05-07T15:03:56;26.7;100.0
22674;DHT22;11504;43.334;21.918;2023-05-07T15:08:33;26.6;100.0
22674;DHT22;11504;43.334;21.918;2023-05-07T15:13:11;26.6;100.0
22674;DHT22;11504;43.334;21.918;2023-05-07T15:17:48;26.4;100.0
22674;DHT22;11504;43.334;21.918;2023-05-07T15:22:25;26.4;100.0
22674;DHT22;11504;43.334;21.918;2023-05-07T15:27:02;26.4;100.0
22674;DHT22;11504;43.334;21.918;2023-05-07T15:31:39;26.3;100.0
22674;DHT22;11504;43.334;21.918;2023-05-07T15:36:15;26.3;100.0
22674;DHT22;11504;43.334;21.918;2023-05-07T15:40:51;26.2;100.0
22674;DHT22;11504;43.334;21.918;2023-05-07T15:45:28;26.2;100.0
22674;DHT22;11504;43.334;21.918;2023-05-07T15:50:06;26.1;100.0
22674;DHT22;11504;43.334;21.918;2023-05-07T15:54:44;26.1;100.0
22674;DHT22;11504;43.334;21.918;2023-05-07T15:59:20;26.0;100.0
22674;DHT22;11504;43.334;21.918;2023-05-07T16:03:57;26.0;100.0
22674;DHT22;11504;43.334;21.918;2023-05-07T16:08:33;25.9;100.0
22674;DHT22;11504;43.334;21.918;2023-05-07T16:13:10;25.9;100.0
22674;DHT22;11504;43.334;21.918;2023-05-07T16:17:47;25.8;100.0
22674;DHT22;11504;43.334;21.918;2023-05-07T16:22:24;25.8;100.0
22674;DHT22;11504;43.334;21.918;2023-05-07T16:27:01;25.8;100.0
22674;DHT22;11504;43.334;21.918;2023-05-07T16:31:38;25.7;100.0
22674;DHT22;11504;43.334;21.918;2023-05-07T16:36:15;25.7;100.0
22674;DHT22;11504;43.334;21.918;2023-05-07T16:40:51;25.5;100.0
22674;DHT22;11504;43.334;21.918;2023-05-07T16:45:29;25.5;100.0
22674;DHT22;11504;43.334;21.918;2023-05-07T16:50:06;25.3;100.0
22674;DHT22;11504;43.334;21.918;2023-05-07T16:54:46;25.3;100.0
22674;DHT22;11504;43.334;21.918;2023-05-07T16:59:22;25.1;100.0
22674;DHT22;11504;43.334;21.918;2023-05-07T17:03:59;25.1;100.0
22674;DHT22;11504;43.334;21.918;2023-05-07T17:08:35;24.9;100.0
22674;DHT22;11504;43.334;21.918;2023-05-07T17:13:12;24.9;100.0
22674;DHT22;11504;43.334;21.918;2023-05-07T17:17:48;24.6;100.0
22674;DHT22;11504;43.334;21.918;2023-05-07T17:22:25;24.6;100.0
22674;DHT22;11504;43.334;21.918;2023-05-07T17:27:02;24.6;100.0
22674;DHT22;11504;43.334;21.918;2023-05-07T17:31:39;24.3;100.0
22674;DHT22;11504;43.334;21.918;2023-05-07T17:36:16;24.3;100.0
22674;DHT22;11504;43.334;21.918;2023-05-07T17:40:52;24.0;100.0
22674;DHT22;11504;43.334;21.918;2023-05-07T17:45:31;24.0;100.0
22674;DHT22;11504;43.334;21.918;2023-05-07T17:50:09;23.6;100.0
22674;DHT22;11504;43.334;21.918;2023-05-07T17:54:48;23.6;100.0
22674;DHT22;11504;43.334;21.918;2023-05-07T17:59:25;23.3;100.0
22674;DHT22;11504;43.334;21.918;2023-05-07T18:04:03;23.3;100.0
22674;DHT22;11504;43.334;21.918;2023-05-07T18:08:39;23.0;100.0
22674;DHT22;11504;43.334;21.918;2023-05-07T18:13:15;23.0;100.0
22674;DHT22;11504;43.334;21.918;2023-05-07T18:17:52;22.8;100.0
22674;DHT22;11504;43.334;21.918;2023-05-07T18:22:28;22.8;100.0
22674;DHT22;11504;43.334;21.918;2023-05-07T18:27:04;22.8;100.0
22674;DHT22;11504;43.334;21.918;2023-05-07T18:31:41;22.5;100.0
22674;DHT22;11504;43.334;21.918;2023-05-07T18:36:17;22.5;100.0
22674;DHT22;11504;43.334;21.918;2023-05-07T18:40:59;22.3;100.0
22674;DHT22;11504;43.334;21.918;2023-05-07T18:45:38;22.3;100.0
22674;DHT22;11504;43.334;21.918;2023-05-07T18:50:14;22.1;100.0
22674;DHT22;11504;43.334;21.918;2023-05-07T18:54:51;22.1;100.0
22674;DHT22;11504;43.334;21.918;2023-05-07T18:59:27;22.0;100.0
22674;DHT22;11504;43.334;21.918;2023-05-07T19:04:04;22.0;100.0
22674;DHT22;11504;43.334;21.918;2023-05-07T19:08:41;21.8;100.0
22674;DHT22;11504;43.334;21.918;2023-05-07T19:13:17;21.8;100.0
22674;DHT22;11504;43.334;21.918;2023-05-07T19:17:54;21.8;100.0
22674;DHT22;11504;43.334;21.918;2023-05-07T19:22:31;21.8;100.0
22674;DHT22;11504;43.334;21.918;2023-05-07T19:27:08;21.8;100.0
22674;DHT22;11504;43.334;21.918;2023-05-07T19:31:44;21.7;100.0
22674;DHT22;11504;43.334;21.918;2023-05-07T19:36:21;21.7;100.0
22674;DHT22;11504;43.334;21.918;2023-05-07T19:40:58;21.6;100.0
22674;DHT22;11504;43.334;21.918;2023-05-07T19:45:34;21.6;100.0
22674;DHT22;11504;43.334;21.918;2023-05-07T19:50:11;21.5;100.0
22674;DHT22;11504;43.334;21.918;2023-05-07T19:54:48;21.5;100.0
22674;DHT22;11504;43.334;21.918;2023-05-07T19:59:26;21.2;100.0
22674;DHT22;11504;43.334;21.918;2023-05-07T20:04:03;21.2;100.0
22674;DHT22;11504;43.334;21.918;2023-05-07T20:08:40;20.8;100.0
22674;DHT22;11504;43.334;21.918;2023-05-07T20:13:17;20.8;100.0
22674;DHT22;11504;43.334;21.918;2023-05-07T20:17:54;20.6;100.0
22674;DHT22;11504;43.334;21.918;2023-05-07T20:22:31;20.6;100.0
22674;DHT22;11504;43.334;21.918;2023-05-07T20:27:08;20.6;100.0
22674;DHT22;11504;43.334;21.918;2023-05-07T20:31:44;20.5;100.0
22674;DHT22;11504;43.334;21.918;2023-05-07T20:36:21;20.5;100.0
22674;DHT22;11504;43.334;21.918;2023-05-07T20:40:58;20.2;100.0
22674;DHT22;11504;43.334;21.918;2023-05-07T20:45:46;20.2;100.0
22674;DHT22;11504;43.334;21.918;2023-05-07T20:50:22;19.9;100.0
22674;DHT22;11504;43.334;21.918;2023-05-07T20:55:02;19.9;100.0
22674;DHT22;11504;43.334;21.918;2023-05-07T20:59:43;19.6;100.0
22674;DHT22;11504;43.334;21.918;2023-05-07T21:04:19;19.6;100.0
22674;DHT22;11504;43.334;21.918;2023-05-07T21:08:55;19.3;100.0
22674;DHT22;11504;43.334;21.918;2023-05-07T21:13:31;19.3;100.0
22674;DHT22;11504;43.334;21.918;2023-05-07T21:18:07;19.0;100.0
22674;DHT22;11504;43.334;21.918;2023-05-07T21:22:44;19.0;100.0
22674;DHT22;11504;43.334;21.918;2023-05-07T21:27:21;19.0;100.0
22674;DHT22;11504;43.334;21.918;2023-05-07T21:31:58;18.8;100.0
22674;DHT22;11504;43.334;21.918;2023-05-07T21:36:36;18.8;100.0
22674;DHT22;11504;43.334;21.918;2023-05-07T21:41:12;18.6;100.0
22674;DHT22;11504;43.334;21.918;2023-05-07T21:45:49;18.6;100.0
22674;DHT22;11504;43.334;21.918;2023-05-07T21:50:26;18.5;100.0
22674;DHT22;11504;43.334;21.918;2023-05-07T21:55:03;18.5;100.0
22674;DHT22;11504;43.334;21.918;2023-05-07T21:59:44;18.4;100.0
22674;DHT22;11504;43.334;21.918;2023-05-07T22:04:22;18.4;100.0
22674;DHT22;11504;43.334;21.918;2023-05-07T22:08:58;18.2;100.0
22674;DHT22;11504;43.334;21.918;2023-05-07T22:13:35;18.2;100.0
22674;DHT22;11504;43.334;21.918;2023-05-07T22:18:11;18.0;100.0
22674;DHT22;11504;43.334;21.918;2023-05-07T22:22:49;18.0;100.0
22674;DHT22;11504;43.334;21.918;2023-05-07T22:27:31;18.0;100.0
22674;DHT22;11504;43.334;21.918;2023-05-07T22:32:07;17.8;100.0
22674;DHT22;11504;43.334;21.918;2023-05-07T22:36:44;17.8;100.0
22674;DHT22;11504;43.334;21.918;2023-05-07T22:41:20;17.6;100.0
22674;DHT22;11504;43.334;21.918;2023-05-07T22:45:57;17.6;100.0
22674;DHT22;11504;43.334;21.918;2023-05-07T22:50:35;17.4;100.0
22674;DHT22;11504;43.334;21.918;2023-05-07T22:55:14;17.4;100.0
22674;DHT22;11504;43.334;21.918;2023-05-07T22:59:53;17.3;100.0
22674;DHT22;11504;43.334;21.918;2023-05-07T23:04:31;17.3;100.0
22674;DHT22;11504;43.334;21.918;2023-05-07T23:09:08;17.2;100.0
22674;DHT22;11504;43.334;21.918;2023-05-07T23:13:45;17.2;100.0
22674;DHT22;11504;43.334;21.918;2023-05-07T23:18:22;17.2;100.0
22674;DHT22;11504;43.334;21.918;2023-05-07T23:22:58;17.2;100.0
22674;DHT22;11504;43.334;21.918;2023-05-07T23:27:35;17.2;100.0
22674;DHT22;11504;43.334;21.918;2023-05-07T23:32:12;17.2;100.0
22674;DHT22;11504;43.334;21.918;2023-05-07T23:36:49;17.2;100.0
22674;DHT22;11504;43.334;21.918;2023-05-07T23:41:26;17.0;100.0
22674;DHT22;11504;43.334;21.918;2023-05-07T23:46:02;17.0;100.0
22674;DHT22;11504;43.334;21.918;2023-05-07T23:50:38;16.9;100.0
22674;DHT22;11504;43.334;21.918;2023-05-07T23:55:15;16.9;100.0
22674;DHT22;11504;43.334;21.918;2023-05-07T23:59:52;16.8;100.0
